Mendoza, Texas
Current Conditions -  °F | °C
As of 2:35 AM on Monday 22 Dec 2014 (Local Time) from KHYI Reporting Station
Overcast Overcast  
Wind Chill: 13°   Ceiling: 1600
Heat Index: 13°   Visibility: 6mi
Dew Point: 12°   Wind: 12mph
Humidity: 94%   Direction: 210°SSW
Pressure: 29.79"   Gusts: 17mph
Location:  29.8965°N, 97.6713°W
Report Text: KHYI 220835Z 21010G15KT 6SM SCT009 OVC016 13/12 A2979 RMK AO1
Loading
Personal Weather Stations






























Interactive Weather Map New forecast layout! Learn more

10-Day Weather Forecast

Advertisements
Track Severe Weather on mobile